Time;durP1;ratioP1;P1;durP2;ratioP2;P2;SDS_P1;SDS_P2;PMS_P1;PMS_P2;Temp;Humidity;BMP_temperature;BMP_pressure;BME280_temperature;BME280_humidity;BME280_pressure;Samples;Min_cycle;Max_cycle;Signal;HPM_P1;HPM_P2
2022/02/27 00:02:03;;;;;;;1999.90;301.07;;;1.40;99.90;;;;;;4955882;29;20464;-71
2022/02/27 00:04:32;;;;;;;485.13;62.60;;;1.40;99.90;;;;;;4955925;29;21001;-71
2022/02/27 00:07:00;;;;;;;418.40;89.87;;;1.40;99.90;;;;;;4954031;29;20448;-71
2022/02/27 00:09:29;;;;;;;1999.90;299.60;;;1.40;99.90;;;;;;4955894;29;20944;-71
2022/02/27 00:11:59;;;;;;;720.37;100.50;;;1.40;99.90;;;;;;4955753;28;20490;-71
2022/02/27 00:14:27;;;;;;;562.33;68.97;;;1.40;99.90;;;;;;4955921;29;20444;-71
2022/02/27 00:16:55;;;;;;;1999.90;297.13;;;1.40;99.90;;;;;;4954344;29;20471;-71
2022/02/27 00:19:23;;;;;;;1999.90;288.13;;;1.40;99.90;;;;;;4956051;29;20471;-71
2022/02/27 00:21:52;;;;;;;203.17;42.87;;;1.40;99.90;;;;;;4955848;29;20466;-71
2022/02/27 00:24:20;;;;;;;1999.90;278.07;;;1.40;99.90;;;;;;4955514;29;20461;-71
2022/02/27 00:26:49;;;;;;;607.50;78.43;;;1.40;99.90;;;;;;4955813;28;20468;-71
2022/02/27 00:29:18;;;;;;;385.77;84.77;;;1.40;99.90;;;;;;4954200;29;20539;-71
2022/02/27 00:31:46;;;;;;;1362.93;153.47;;;1.30;99.90;;;;;;4954035;29;20466;-71
2022/02/27 00:34:17;;;;;;;1523.17;197.40;;;1.30;99.90;;;;;;4955690;29;20439;-71
2022/02/27 00:36:46;;;;;;;1999.90;272.93;;;1.30;99.90;;;;;;4953593;29;20453;-71
2022/02/27 00:39:14;;;;;;;1999.90;275.33;;;1.30;99.90;;;;;;4953604;28;20480;-71
2022/02/27 00:41:42;;;;;;;660.00;81.63;;;1.30;99.90;;;;;;4955049;29;20470;-71
2022/02/27 00:44:10;;;;;;;1999.90;329.37;;;1.30;99.90;;;;;;4953943;28;20664;-71
2022/02/27 00:46:40;;;;;;;628.03;74.10;;;1.30;99.90;;;;;;4955703;29;20513;-71
2022/02/27 00:49:08;;;;;;;1999.90;341.97;;;1.30;99.90;;;;;;4953840;29;20448;-71
2022/02/27 00:51:36;;;;;;;527.87;89.43;;;1.20;99.90;;;;;;4955084;28;20463;-71
2022/02/27 00:54:04;;;;;;;1999.90;295.57;;;1.30;99.90;;;;;;4953958;28;20883;-71
2022/02/27 00:56:32;;;;;;;1999.90;288.83;;;1.30;99.90;;;;;;4954999;28;20479;-71
2022/02/27 00:59:00;;;;;;;466.67;65.50;;;1.20;99.90;;;;;;4953708;29;20554;-71
2022/02/27 01:01:28;;;;;;;1999.90;312.27;;;1.20;99.90;;;;;;4953264;28;20511;-71
2022/02/27 01:03:58;;;;;;;1999.90;303.83;;;1.20;99.90;;;;;;4954934;29;20444;-71
2022/02/27 01:06:26;;;;;;;900.27;122.27;;;1.20;99.90;;;;;;4954872;29;20447;-71
2022/02/27 01:08:58;;;;;;;1999.90;278.97;;;1.20;99.90;;;;;;4954926;29;20957;-72
2022/02/27 01:11:31;;;;;;;714.53;92.67;;;1.20;99.90;;;;;;4955157;28;20460;-71
2022/02/27 01:14:00;;;;;;;1999.90;346.43;;;1.20;99.90;;;;;;4955452;29;20865;-72
2022/02/27 01:16:31;;;;;;;1945.43;273.17;;;1.10;99.90;;;;;;4953569;29;20443;-71
2022/02/27 01:19:02;;;;;;;664.13;98.60;;;1.10;99.90;;;;;;4953574;29;20444;-72
2022/02/27 01:21:32;;;;;;;311.43;41.77;;;1.10;99.90;;;;;;4954376;29;20838;-71
2022/02/27 01:24:00;;;;;;;1999.90;356.00;;;1.10;99.90;;;;;;4953554;29;20503;-71
2022/02/27 01:26:28;;;;;;;589.80;79.77;;;1.10;99.90;;;;;;4953449;28;20451;-72
2022/02/27 01:28:58;;;;;;;1999.90;315.10;;;1.10;99.90;;;;;;4953526;29;20546;-72
2022/02/27 01:31:28;;;;;;;867.33;99.77;;;1.00;99.90;;;;;;4953452;28;20463;-72
2022/02/27 01:33:56;;;;;;;709.33;123.07;;;1.00;99.90;;;;;;4953151;28;20456;-71
2022/02/27 01:36:26;;;;;;;426.57;70.80;;;1.00;99.90;;;;;;4953146;28;20492;-71
2022/02/27 01:38:54;;;;;;;1999.90;335.67;;;1.00;99.90;;;;;;4953154;29;20549;-71
2022/02/27 01:41:22;;;;;;;408.47;95.77;;;0.90;99.90;;;;;;4953270;29;20471;-71
2022/02/27 01:43:50;;;;;;;1943.53;248.93;;;0.90;99.90;;;;;;4953415;29;20539;-71
2022/02/27 01:46:19;;;;;;;1999.90;263.50;;;0.90;99.90;;;;;;4954234;29;20796;-71
2022/02/27 01:48:48;;;;;;;616.83;80.20;;;0.90;99.90;;;;;;4953245;29;20530;-72
2022/02/27 01:51:17;;;;;;;1999.90;272.53;;;0.90;99.90;;;;;;4953228;28;20448;-72
2022/02/27 01:53:47;;;;;;;1999.90;273.33;;;0.80;99.90;;;;;;4953233;29;20809;-72
2022/02/27 01:56:17;;;;;;;386.17;74.20;;;0.80;99.90;;;;;;4954431;28;20465;-72
2022/02/27 01:58:46;;;;;;;1999.90;323.17;;;0.80;99.90;;;;;;4953212;29;20486;-72
2022/02/27 02:01:14;;;;;;;439.50;63.47;;;0.80;99.90;;;;;;4952953;29;20511;-72
2022/02/27 02:03:43;;;;;;;1999.90;253.53;;;0.80;99.90;;;;;;4954464;28;20530;-71
2022/02/27 02:06:11;;;;;;;1999.90;258.83;;;0.80;99.90;;;;;;4954443;29;20968;-71
2022/02/27 02:08:39;;;;;;;1999.90;287.10;;;0.80;99.90;;;;;;4953138;28;20450;-72
2022/02/27 02:11:10;;;;;;;665.47;127.57;;;0.70;99.90;;;;;;4950911;28;20546;-71
2022/02/27 02:13:42;;;;;;;1999.90;269.57;;;0.70;99.90;;;;;;4953221;29;20444;-72
2022/02/27 02:16:10;;;;;;;515.60;78.27;;;0.70;99.90;;;;;;4951848;28;20468;-71
2022/02/27 02:18:39;;;;;;;708.20;104.57;;;0.70;99.90;;;;;;4937391;29;20451;-71
2022/02/27 02:21:08;;;;;;;712.90;77.60;;;0.60;99.90;;;;;;4938443;29;20474;-71
2022/02/27 02:23:36;;;;;;;1999.90;303.23;;;0.60;99.90;;;;;;4938521;29;20514;-71
2022/02/27 02:26:05;;;;;;;1999.90;247.60;;;0.60;99.90;;;;;;4956418;29;20867;-72
2022/02/27 02:28:34;;;;;;;1999.90;323.57;;;0.60;99.90;;;;;;4955558;29;20529;-71
2022/02/27 02:31:03;;;;;;;651.13;98.37;;;0.60;99.90;;;;;;4956315;28;20952;-71
2022/02/27 02:33:35;;;;;;;326.77;62.73;;;0.60;99.90;;;;;;4956155;28;20471;-71
2022/02/27 02:36:06;;;;;;;1999.90;261.63;;;0.60;99.90;;;;;;4954064;29;20497;-71
2022/02/27 02:38:35;;;;;;;1999.90;250.50;;;0.50;99.90;;;;;;4956253;29;20455;-71
2022/02/27 02:41:03;;;;;;;347.83;56.20;;;0.50;99.90;;;;;;4956104;28;20503;-72
2022/02/27 02:43:32;;;;;;;1061.27;101.10;;;0.50;99.90;;;;;;4956140;28;20849;-71
2022/02/27 02:46:00;;;;;;;933.70;105.63;;;0.50;99.90;;;;;;4956054;28;20498;-72
2022/02/27 02:48:28;;;;;;;1664.63;190.17;;;0.50;99.90;;;;;;4955917;28;20815;-71
2022/02/27 02:51:17;;;;;;;895.20;92.73;;;0.40;99.90;;;;;;4957428;28;20527;-71
2022/02/27 02:53:47;;;;;;;520.80;57.70;;;0.40;99.90;;;;;;4955904;28;20492;-71
2022/02/27 02:56:15;;;;;;;502.33;65.40;;;0.40;99.90;;;;;;4957151;28;20578;-71
2022/02/27 02:58:44;;;;;;;523.77;66.47;;;0.40;99.90;;;;;;4956121;29;20537;-71
2022/02/27 03:01:14;;;;;;;427.27;41.57;;;0.40;99.90;;;;;;4955436;29;20904;-72
2022/02/27 03:03:44;;;;;;;1999.90;295.80;;;0.40;99.90;;;;;;4950104;29;20450;-72
2022/02/27 03:06:14;;;;;;;448.40;44.57;;;0.40;99.90;;;;;;4955652;29;20877;-71
2022/02/27 03:08:44;;;;;;;677.27;54.67;;;0.40;99.90;;;;;;4956942;29;20534;-71
2022/02/27 03:11:14;;;;;;;1769.43;221.20;;;0.30;99.90;;;;;;4956907;28;20415;-72
2022/02/27 03:13:42;;;;;;;1074.03;137.03;;;0.30;99.90;;;;;;4955561;28;20497;-71
2022/02/27 03:16:11;;;;;;;1884.60;235.40;;;0.30;99.90;;;;;;4956758;28;20445;-72
2022/02/27 03:18:40;;;;;;;1487.97;198.87;;;0.30;99.90;;;;;;4955735;29;20590;-72
2022/02/27 03:21:08;;;;;;;664.53;87.93;;;0.30;99.90;;;;;;4956212;28;20468;-72
2022/02/27 03:23:37;;;;;;;1999.90;298.00;;;0.30;99.90;;;;;;4955289;28;20450;-72
2022/02/27 03:26:08;;;;;;;1999.90;284.13;;;0.30;99.90;;;;;;4956657;28;20882;-72
2022/02/27 03:28:38;;;;;;;1999.90;242.67;;;0.20;99.90;;;;;;4954473;28;21023;-71
2022/02/27 03:31:06;;;;;;;577.47;60.87;;;0.20;99.90;;;;;;4955156;28;20447;-72
2022/02/27 03:33:34;;;;;;;1950.27;232.17;;;0.20;99.90;;;;;;4956394;29;20538;-71
2022/02/27 03:36:03;;;;;;;515.37;74.57;;;0.20;99.90;;;;;;4956393;29;20482;-72
2022/02/27 03:38:31;;;;;;;658.40;92.37;;;0.20;99.90;;;;;;4956906;29;20511;-71
2022/02/27 03:40:59;;;;;;;1924.40;223.60;;;0.20;99.90;;;;;;4954960;28;20537;-71
2022/02/27 03:43:27;;;;;;;467.07;59.83;;;0.20;99.90;;;;;;4954915;29;20580;-71
2022/02/27 03:45:57;;;;;;;1668.93;213.00;;;0.20;99.90;;;;;;4956042;28;20450;-71
2022/02/27 03:48:25;;;;;;;1899.83;234.53;;;0.20;99.90;;;;;;4956115;28;20449;-71
2022/02/27 03:50:54;;;;;;;1999.90;244.70;;;0.20;99.90;;;;;;4956113;29;20808;-71
2022/02/27 03:53:23;;;;;;;1317.07;196.13;;;0.10;99.90;;;;;;4956012;28;20819;-71
2022/02/27 03:55:51;;;;;;;1863.47;214.13;;;0.10;99.90;;;;;;4955998;28;20485;-71
2022/02/27 03:58:19;;;;;;;273.77;29.70;;;0.10;99.90;;;;;;4955987;29;20461;-71
2022/02/27 04:00:48;;;;;;;1914.53;249.00;;;0.10;99.90;;;;;;4955887;28;20578;-72
2022/02/27 04:03:17;;;;;;;386.73;62.23;;;0.10;99.90;;;;;;4954529;28;20513;-71
2022/02/27 04:05:46;;;;;;;712.33;104.30;;;0.10;99.90;;;;;;4955940;29;20839;-71
2022/02/27 04:08:14;;;;;;;1604.70;209.73;;;0.10;99.90;;;;;;4954090;28;20493;-71
2022/02/27 04:10:42;;;;;;;484.37;34.97;;;0.10;99.90;;;;;;4955619;29;20443;-71
2022/02/27 04:13:10;;;;;;;388.53;63.87;;;0.10;99.90;;;;;;4955686;29;20553;-71
2022/02/27 04:15:39;;;;;;;309.83;27.73;;;0.00;99.90;;;;;;4955856;29;20952;-71
2022/02/27 04:18:07;;;;;;;1999.90;221.17;;;0.00;99.90;;;;;;4954325;29;20447;-72
2022/02/27 04:20:37;;;;;;;589.87;52.20;;;0.00;99.90;;;;;;4954256;29;20623;-72
2022/02/27 04:23:05;;;;;;;1492.20;191.60;;;0.00;99.90;;;;;;4954377;29;20494;-71
2022/02/27 04:25:33;;;;;;;668.13;78.90;;;0.00;99.90;;;;;;4955747;29;20451;-71
2022/02/27 04:28:01;;;;;;;1725.03;193.60;;;0.00;99.90;;;;;;4949255;28;20569;-71
2022/02/27 04:30:30;;;;;;;1858.10;234.43;;;0.00;99.90;;;;;;4944364;29;20443;-71
2022/02/27 04:32:58;;;;;;;1866.43;234.70;;;0.00;99.90;;;;;;4955447;29;20566;-71
2022/02/27 04:35:28;;;;;;;833.50;91.00;;;0.00;99.90;;;;;;4955704;29;20440;-71
2022/02/27 04:37:58;;;;;;;212.93;32.70;;;-0.10;99.90;;;;;;4953753;28;20538;-71
2022/02/27 04:40:26;;;;;;;971.07;114.33;;;-0.10;99.90;;;;;;4953955;29;20550;-71
2022/02/27 04:42:54;;;;;;;1999.90;246.20;;;-0.10;99.90;;;;;;4955169;29;20474;-71
2022/02/27 04:45:22;;;;;;;1671.00;208.23;;;-0.10;99.90;;;;;;4955280;28;20434;-71
2022/02/27 04:47:51;;;;;;;1373.10;164.83;;;-0.10;99.90;;;;;;4954752;29;20458;-71
2022/02/27 04:50:19;;;;;;;765.07;73.20;;;-0.10;99.90;;;;;;4955574;29;20438;-71
2022/02/27 04:52:47;;;;;;;1418.80;203.77;;;-0.10;99.90;;;;;;4955069;28;20490;-72
2022/02/27 04:55:17;;;;;;;1091.47;135.23;;;-0.10;99.90;;;;;;4955495;29;20549;-72
2022/02/27 04:57:45;;;;;;;180.73;22.87;;;-0.10;99.90;;;;;;4955430;28;20525;-72
2022/02/27 05:00:14;;;;;;;346.00;50.23;;;-0.10;99.90;;;;;;4953849;28;20454;-71
2022/02/27 05:02:43;;;;;;;459.90;50.37;;;-0.10;99.90;;;;;;4954822;28;20483;-72
2022/02/27 05:05:11;;;;;;;1121.57;115.87;;;-0.10;99.90;;;;;;4955259;29;20485;-72
2022/02/27 05:07:39;;;;;;;1720.23;238.07;;;-0.10;99.90;;;;;;4954823;29;20454;-71
2022/02/27 05:10:09;;;;;;;1754.07;279.63;;;-0.10;99.90;;;;;;4954883;29;20464;-71
2022/02/27 05:12:42;;;;;;;68.27;21.13;;;-0.10;99.90;;;;;;4954971;28;20972;-72
2022/02/27 05:15:11;;;;;;;1751.57;236.47;;;-0.10;99.90;;;;;;4953611;29;20443;-72
2022/02/27 05:17:42;;;;;;;1724.83;234.53;;;-0.10;99.90;;;;;;4954866;28;20483;-71
2022/02/27 05:20:11;;;;;;;1999.90;290.80;;;-0.10;99.90;;;;;;4955104;28;20530;-72
2022/02/27 05:22:44;;;;;;;1058.17;154.67;;;-0.10;99.90;;;;;;4955190;28;20556;-71
2022/02/27 05:25:15;;;;;;;623.37;90.23;;;-0.10;99.90;;;;;;4955052;28;20480;-71
2022/02/27 05:27:45;;;;;;;1099.60;149.90;;;-0.10;99.90;;;;;;4953606;28;20450;-71
2022/02/27 05:30:14;;;;;;;508.87;70.47;;;-0.10;99.90;;;;;;4954888;29;20898;-72
2022/02/27 05:32:46;;;;;;;232.53;21.57;;;-0.10;99.90;;;;;;4954780;28;20899;-71
2022/02/27 05:35:15;;;;;;;1219.33;145.70;;;-0.10;99.90;;;;;;4953602;28;20541;-71
2022/02/27 05:37:44;;;;;;;1990.13;261.57;;;-0.10;99.90;;;;;;4954909;28;20530;-71
2022/02/27 05:40:13;;;;;;;1550.17;206.50;;;-0.10;99.90;;;;;;4952117;29;20450;-71
2022/02/27 05:42:41;;;;;;;615.70;96.57;;;-0.10;99.90;;;;;;4953335;28;20474;-71
2022/02/27 05:45:12;;;;;;;1999.90;231.47;;;-0.10;99.90;;;;;;4954691;29;20537;-71
2022/02/27 05:47:40;;;;;;;667.33;59.80;;;-0.10;99.90;;;;;;4953415;29;20538;-71
2022/02/27 05:50:09;;;;;;;1229.47;144.23;;;-0.10;99.90;;;;;;4953932;28;20465;-71
2022/02/27 05:52:37;;;;;;;649.03;99.70;;;-0.10;99.90;;;;;;4958529;29;20501;-71
2022/02/27 05:55:07;;;;;;;235.13;46.00;;;-0.10;99.90;;;;;;4958568;28;20967;-71
2022/02/27 05:57:35;;;;;;;1999.90;239.67;;;-0.10;99.90;;;;;;4958926;28;20434;-71
2022/02/27 06:00:05;;;;;;;325.60;34.33;;;-0.10;99.90;;;;;;4956048;28;20537;-71
2022/02/27 06:02:35;;;;;;;1999.90;259.27;;;-0.10;99.90;;;;;;4937669;29;20471;-71
2022/02/27 06:05:07;;;;;;;669.00;93.67;;;-0.10;99.90;;;;;;4953575;29;20776;-71
2022/02/27 06:07:35;;;;;;;1754.57;224.80;;;-0.20;99.90;;;;;;4958451;28;20443;-71
2022/02/27 06:10:04;;;;;;;396.90;44.33;;;-0.10;99.90;;;;;;4958317;28;20869;-71
2022/02/27 06:12:32;;;;;;;1461.37;165.87;;;-0.10;99.90;;;;;;4958092;28;20494;-71
2022/02/27 06:15:00;;;;;;;442.40;55.27;;;-0.20;99.90;;;;;;4958421;29;20438;-71
2022/02/27 06:17:28;;;;;;;517.50;80.50;;;-0.20;99.90;;;;;;4956581;29;20545;-71
2022/02/27 06:20:04;;;;;;;549.13;61.40;;;-0.20;99.90;;;;;;4954057;29;20474;-71
2022/02/27 06:22:32;;;;;;;1608.73;236.97;;;-0.20;99.90;;;;;;4957779;28;21039;-71
2022/02/27 06:25:01;;;;;;;1374.73;165.20;;;-0.20;99.90;;;;;;4955618;28;20458;-71
2022/02/27 06:27:29;;;;;;;1693.83;218.90;;;-0.20;99.90;;;;;;4957611;29;20936;-71
2022/02/27 06:29:57;;;;;;;1731.07;217.40;;;-0.20;99.90;;;;;;4958184;28;20940;-71
2022/02/27 06:32:25;;;;;;;1531.87;194.70;;;-0.20;99.90;;;;;;4957543;29;20455;-71
2022/02/27 06:34:53;;;;;;;1843.97;253.77;;;-0.20;99.90;;;;;;4958093;29;20478;-71
2022/02/27 06:37:23;;;;;;;508.50;49.77;;;-0.20;99.90;;;;;;4956309;28;20446;-71
2022/02/27 06:39:51;;;;;;;261.90;20.53;;;-0.20;99.90;;;;;;4957695;28;20478;-71
2022/02/27 06:42:19;;;;;;;934.17;129.13;;;-0.20;99.90;;;;;;4956758;28;20573;-71
2022/02/27 06:44:48;;;;;;;178.83;26.37;;;-0.20;99.90;;;;;;4957071;29;20489;-71
2022/02/27 06:47:16;;;;;;;1374.57;201.30;;;-0.20;99.90;;;;;;4956048;28;20462;-71
2022/02/27 06:49:44;;;;;;;272.13;32.80;;;-0.20;99.90;;;;;;4957233;29;20932;-71
2022/02/27 06:52:13;;;;;;;548.60;78.23;;;-0.20;99.90;;;;;;4957133;28;20609;-71
2022/02/27 06:54:42;;;;;;;727.57;59.23;;;-0.20;99.90;;;;;;4955838;28;20472;-72
2022/02/27 06:57:11;;;;;;;670.00;82.70;;;-0.20;99.90;;;;;;4957408;29;20485;-71
2022/02/27 06:59:39;;;;;;;395.97;64.27;;;-0.20;99.90;;;;;;4957122;28;20454;-71
2022/02/27 07:02:08;;;;;;;361.03;60.53;;;-0.20;99.90;;;;;;4955431;28;20521;-71
2022/02/27 07:04:37;;;;;;;437.47;40.30;;;-0.20;99.90;;;;;;4957339;28;20797;-71
2022/02/27 07:07:05;;;;;;;467.23;61.63;;;-0.20;99.90;;;;;;4957250;29;20493;-71
2022/02/27 07:09:33;;;;;;;1134.10;153.67;;;-0.20;99.90;;;;;;4956648;28;20442;-71
2022/02/27 07:12:04;;;;;;;1882.50;226.07;;;-0.20;99.90;;;;;;4956823;28;20514;-71
2022/02/27 07:14:32;;;;;;;1122.83;123.07;;;-0.20;99.90;;;;;;4955645;29;20451;-71
2022/02/27 07:17:00;;;;;;;583.20;69.43;;;-0.10;99.90;;;;;;4957009;29;20779;-71
2022/02/27 07:19:33;;;;;;;604.93;88.97;;;-0.10;99.90;;;;;;4957022;29;20423;-71
2022/02/27 07:22:02;;;;;;;1324.07;187.33;;;0.00;99.90;;;;;;4956623;29;20980;-71
2022/02/27 07:24:30;;;;;;;1417.50;200.93;;;0.00;99.90;;;;;;4955426;29;20475;-71
2022/02/27 07:26:58;;;;;;;1430.53;187.07;;;0.10;99.90;;;;;;4955363;28;20454;-71
2022/02/27 07:29:32;;;;;;;524.27;80.03;;;0.20;99.90;;;;;;4954982;28;20451;-71
2022/02/27 07:32:01;;;;;;;638.73;93.30;;;0.20;99.90;;;;;;4955197;29;20466;-71
2022/02/27 07:34:29;;;;;;;392.37;60.80;;;0.30;99.90;;;;;;4956379;29;20443;-71
2022/02/27 07:36:57;;;;;;;467.70;80.83;;;0.30;99.90;;;;;;4956989;28;20540;-71
2022/02/27 07:39:26;;;;;;;440.80;85.00;;;0.40;99.90;;;;;;4955097;29;20452;-71
2022/02/27 07:41:55;;;;;;;557.17;120.30;;;0.40;99.90;;;;;;4956327;28;20843;-71
2022/02/27 07:44:26;;;;;;;487.37;65.17;;;0.50;99.90;;;;;;4956878;29;20455;-72
2022/02/27 07:46:56;;;;;;;709.37;160.93;;;0.60;99.90;;;;;;4956491;29;20439;-72
2022/02/27 07:49:25;;;;;;;833.07;105.57;;;0.70;99.90;;;;;;4956794;29;20510;-72
2022/02/27 07:51:54;;;;;;;748.97;121.83;;;0.70;99.90;;;;;;4955895;28;20502;-71
2022/02/27 07:54:22;;;;;;;774.63;103.00;;;0.80;99.90;;;;;;4954912;29;20535;-72
2022/02/27 07:56:50;;;;;;;749.10;99.10;;;0.90;99.90;;;;;;4956003;29;20450;-73
2022/02/27 07:59:18;;;;;;;983.63;175.37;;;1.00;99.90;;;;;;4954882;28;20898;-72
2022/02/27 08:01:46;;;;;;;1594.60;275.50;;;1.10;99.90;;;;;;4954983;28;20998;-72
2022/02/27 08:04:16;;;;;;;1602.07;331.77;;;1.20;99.90;;;;;;4954612;28;21011;-73
2022/02/27 08:06:44;;;;;;;953.37;148.87;;;1.30;99.90;;;;;;4955997;28;20446;-72
2022/02/27 08:09:13;;;;;;;1253.80;194.73;;;1.50;99.90;;;;;;4956180;28;20559;-73
2022/02/27 08:11:41;;;;;;;991.53;160.20;;;1.50;99.90;;;;;;4955772;29;20465;-73
2022/02/27 08:14:11;;;;;;;1284.57;273.00;;;1.70;99.90;;;;;;4951886;28;20460;-72
2022/02/27 08:16:39;;;;;;;1999.90;318.47;;;1.80;99.90;;;;;;4955747;28;20896;-72
2022/02/27 08:19:07;;;;;;;1999.90;517.73;;;2.00;99.90;;;;;;4955675;29;20471;-72
2022/02/27 08:21:38;;;;;;;1999.90;659.10;;;2.10;99.90;;;;;;4955794;28;20462;-72
2022/02/27 08:24:08;;;;;;;1999.90;583.20;;;2.30;99.90;;;;;;4954419;28;20468;-72
2022/02/27 08:26:36;;;;;;;1999.90;912.37;;;2.50;99.90;;;;;;4954515;29;20457;-72
2022/02/27 08:29:06;;;;;;;1999.90;999.90;;;2.60;99.90;;;;;;4955748;28;20478;-72
2022/02/27 08:31:40;;;;;;;1999.90;788.60;;;2.70;99.90;;;;;;4955633;29;20476;-72
2022/02/27 08:34:10;;;;;;;1999.90;741.63;;;2.90;99.90;;;;;;4953859;28;20557;-72
2022/02/27 08:36:40;;;;;;;1999.90;604.53;;;3.00;99.90;;;;;;4954108;28;20814;-72
2022/02/27 08:39:12;;;;;;;1999.90;643.50;;;3.10;99.90;;;;;;4955420;29;20446;-72
2022/02/27 08:41:40;;;;;;;1999.90;847.80;;;3.20;99.90;;;;;;4955850;29;20513;-72
2022/02/27 08:44:08;;;;;;;1999.90;668.73;;;3.40;99.90;;;;;;4955220;28;20475;-72
2022/02/27 08:46:37;;;;;;;1999.90;999.90;;;3.40;99.90;;;;;;4953914;28;20987;-72
2022/02/27 08:49:06;;;;;;;1999.90;876.67;;;3.50;99.90;;;;;;4955195;29;20446;-72
2022/02/27 08:51:35;;;;;;;1999.90;858.67;;;3.60;99.90;;;;;;4953899;28;20468;-72
2022/02/27 08:54:04;;;;;;;1999.90;710.80;;;3.60;99.90;;;;;;4955758;29;20529;-72
2022/02/27 08:56:32;;;;;;;1999.90;868.30;;;3.70;99.90;;;;;;4955095;28;20455;-72
2022/02/27 08:59:00;;;;;;;1999.90;999.90;;;3.70;99.90;;;;;;4954640;28;20853;-72
2022/02/27 09:01:29;;;;;;;1999.90;863.47;;;3.70;99.90;;;;;;4954993;29;20485;-72
2022/02/27 09:03:57;;;;;;;1999.90;999.90;;;3.70;99.90;;;;;;4954874;28;20528;-72
2022/02/27 09:06:25;;;;;;;1999.90;696.83;;;3.80;99.90;;;;;;4955493;29;20466;-72
2022/02/27 09:08:53;;;;;;;1999.90;546.27;;;3.80;99.90;;;;;;4954941;28;20796;-72
2022/02/27 09:11:23;;;;;;;1999.90;696.87;;;3.80;99.90;;;;;;4954897;28;20529;-72
2022/02/27 09:13:51;;;;;;;1999.90;873.80;;;3.90;99.90;;;;;;4955132;29;20443;-72
2022/02/27 09:16:19;;;;;;;1999.90;747.33;;;3.90;99.90;;;;;;4953849;28;20497;-72
2022/02/27 09:18:48;;;;;;;1999.90;901.23;;;3.90;99.90;;;;;;4954872;29;20446;-72
2022/02/27 09:21:16;;;;;;;1999.90;652.80;;;4.00;99.90;;;;;;4953743;28;20549;-72
2022/02/27 09:23:44;;;;;;;1999.90;999.90;;;4.00;99.90;;;;;;4953502;29;20474;-72
2022/02/27 09:26:12;;;;;;;1999.90;927.80;;;4.00;99.90;;;;;;4957270;28;20873;-72
2022/02/27 09:28:54;;;;;;;1999.90;608.27;;;4.10;99.90;;;;;;4955317;29;20962;-72
2022/02/27 09:31:22;;;;;;;1999.90;693.97;;;4.10;99.90;;;;;;4950322;29;20552;-72
2022/02/27 09:33:52;;;;;;;1999.90;882.60;;;4.20;99.90;;;;;;4959355;29;20424;-72
2022/02/27 09:36:21;;;;;;;1999.90;999.90;;;4.20;99.90;;;;;;4958590;28;20453;-72
2022/02/27 09:38:49;;;;;;;1999.90;999.90;;;4.20;99.90;;;;;;4958705;28;20446;-72
2022/02/27 09:41:17;;;;;;;1999.90;918.63;;;4.30;99.90;;;;;;4958472;28;20442;-72
2022/02/27 09:43:51;;;;;;;1999.90;884.70;;;4.30;99.90;;;;;;4957149;29;20504;-72
2022/02/27 09:46:22;;;;;;;1999.90;585.53;;;4.40;99.90;;;;;;4957216;29;20441;-72
2022/02/27 09:48:51;;;;;;;1999.90;727.97;;;4.40;99.90;;;;;;4958484;29;20431;-72
2022/02/27 09:51:19;;;;;;;1999.90;604.83;;;4.50;99.90;;;;;;4958357;28;20438;-72
2022/02/27 09:53:48;;;;;;;1999.90;605.50;;;4.50;99.90;;;;;;4958669;29;20434;-72
2022/02/27 09:56:16;;;;;;;1999.90;999.90;;;4.60;99.90;;;;;;4958384;29;20461;-72
2022/02/27 09:58:45;;;;;;;1999.90;732.37;;;4.60;99.90;;;;;;4957116;28;20457;-72
2022/02/27 10:01:14;;;;;;;1999.90;545.27;;;4.70;99.90;;;;;;4957866;28;20456;-72
2022/02/27 10:03:44;;;;;;;1999.90;999.90;;;4.70;99.90;;;;;;4958000;28;20537;-72
2022/02/27 10:06:17;;;;;;;1999.90;999.90;;;4.80;99.90;;;;;;4958119;28;20513;-72
2022/02/27 10:08:47;;;;;;;1886.53;474.67;;;4.80;99.90;;;;;;4958318;28;20439;-72
2022/02/27 10:11:17;;;;;;;1999.90;905.07;;;4.90;99.90;;;;;;4957258;29;20534;-72
2022/02/27 10:13:47;;;;;;;1680.50;413.87;;;5.00;99.90;;;;;;4958228;29;20998;-72
2022/02/27 10:16:18;;;;;;;1797.90;474.60;;;5.00;99.90;;;;;;4961142;28;20492;-72
2022/02/27 10:18:49;;;;;;;1737.43;597.47;;;5.10;99.90;;;;;;4960114;29;20447;-72
2022/02/27 10:21:23;;;;;;;1999.90;669.67;;;5.10;99.90;;;;;;4959487;29;20466;-72
2022/02/27 10:24:12;;;;;;;1999.90;510.67;;;5.20;99.90;;;;;;4942349;29;20470;-72
2022/02/27 10:26:43;;;;;;;1637.63;415.00;;;5.20;99.90;;;;;;4959574;29;20450;-72
2022/02/27 10:29:13;;;;;;;1822.13;466.67;;;5.30;99.90;;;;;;4959930;28;20453;-72
2022/02/27 10:31:43;;;;;;;1659.03;414.13;;;5.30;99.90;;;;;;4961273;29;20549;-72
2022/02/27 10:34:24;;;;;;;1637.00;433.57;;;5.40;99.90;;;;;;4961318;28;20481;-72
2022/02/27 10:36:57;;;;;;;1757.20;441.10;;;5.40;99.90;;;;;;4957271;28;20464;-72
2022/02/27 10:39:30;;;;;;;443.30;123.30;;;5.50;99.90;;;;;;4958128;29;20431;-73
2022/02/27 10:42:09;;;;;;;1692.70;441.27;;;5.50;99.90;;;;;;4957825;28;20478;-73
2022/02/27 10:44:39;;;;;;;343.20;102.80;;;5.50;99.90;;;;;;4957116;29;20510;-72
2022/02/27 10:47:09;;;;;;;582.37;159.40;;;5.60;99.90;;;;;;4958101;29;20455;-72
2022/02/27 10:49:39;;;;;;;558.57;153.77;;;5.60;99.90;;;;;;4957863;29;20446;-73
2022/02/27 10:52:16;;;;;;;631.07;153.77;;;5.70;99.90;;;;;;4957442;28;20466;-73
2022/02/27 10:54:46;;;;;;;229.50;79.63;;;5.80;99.90;;;;;;4957741;29;20433;-73
2022/02/27 10:57:33;;;;;;;580.87;151.67;;;5.80;99.90;;;;;;4957946;29;20428;-72
2022/02/27 11:00:12;;;;;;;373.47;107.20;;;5.80;99.90;;;;;;4957735;29;20887;-73
2022/02/27 11:02:42;;;;;;;394.80;121.30;;;5.90;99.90;;;;;;4956536;28;20478;-73
2022/02/27 11:05:15;;;;;;;520.97;153.27;;;6.00;99.90;;;;;;4957203;28;20561;-73
2022/02/27 11:07:44;;;;;;;504.07;143.27;;;6.00;99.90;;;;;;4941866;29;20522;-73
2022/02/27 11:10:14;;;;;;;409.73;97.67;;;6.10;99.90;;;;;;4957246;29;20455;-73
2022/02/27 11:12:42;;;;;;;191.43;62.83;;;6.10;99.90;;;;;;4955860;28;20471;-73
2022/02/27 11:15:15;;;;;;;232.40;108.30;;;6.20;99.90;;;;;;4957513;28;20442;-73
2022/02/27 11:17:44;;;;;;;331.77;117.40;;;6.20;99.90;;;;;;4957415;29;20439;-73
2022/02/27 11:20:19;;;;;;;166.33;87.30;;;6.30;99.90;;;;;;4957229;29;20449;-72
2022/02/27 11:22:47;;;;;;;182.40;89.30;;;6.30;99.90;;;;;;4957231;28;20558;-73
2022/02/27 11:25:16;;;;;;;326.17;120.10;;;6.40;99.90;;;;;;4956957;28;20474;-73
2022/02/27 11:27:47;;;;;;;412.53;169.53;;;6.40;99.90;;;;;;4956801;28;20491;-73
2022/02/27 11:30:20;;;;;;;326.27;125.53;;;6.50;99.90;;;;;;4953624;29;20456;-74
2022/02/27 11:32:50;;;;;;;718.20;211.53;;;6.50;99.90;;;;;;4957118;29;20558;-73
2022/02/27 11:35:41;;;;;;;408.63;160.10;;;6.60;99.90;;;;;;4955403;28;20554;-73
2022/02/27 11:38:11;;;;;;;362.50;150.17;;;6.60;99.90;;;;;;4955623;28;20978;-73
2022/02/27 11:40:45;;;;;;;736.23;256.87;;;6.70;99.90;;;;;;4956645;29;20454;-73
2022/02/27 11:43:18;;;;;;;842.50;245.67;;;6.70;99.90;;;;;;4956807;28;20467;-73
2022/02/27 11:45:59;;;;;;;1929.50;647.10;;;6.80;99.90;;;;;;4957283;29;20533;-73
2022/02/27 11:48:57;;;;;;;1500.87;490.57;;;6.90;99.90;;;;;;4955805;28;20516;-73
2022/02/27 11:51:45;;;;;;;1918.93;574.70;;;6.90;99.90;;;;;;4956286;28;20443;-73
2022/02/27 11:54:16;;;;;;;1999.90;705.07;;;7.00;99.90;;;;;;4955215;29;20486;-72
2022/02/27 11:56:45;;;;;;;1999.90;864.20;;;7.00;99.90;;;;;;4956525;29;20814;-72
2022/02/27 11:59:15;;;;;;;1999.90;934.43;;;7.00;99.90;;;;;;4956286;29;20479;-72
2022/02/27 12:01:57;;;;;;;1999.90;999.90;;;7.00;99.90;;;;;;4955815;28;20479;-72
2022/02/27 12:04:28;;;;;;;1999.90;999.90;;;7.10;99.90;;;;;;4956796;29;20775;-72
2022/02/27 12:07:05;;;;;;;1999.90;999.90;;;7.10;99.90;;;;;;4956034;28;20502;-72
2022/02/27 12:10:02;;;;;;;1999.90;989.77;;;7.10;99.90;;;;;;4956526;29;20847;-72
2022/02/27 12:12:53;;;;;;;1999.90;964.80;;;7.10;99.90;;;;;;4954774;28;20547;-72
2022/02/27 12:15:25;;;;;;;1999.90;993.20;;;7.20;99.90;;;;;;4954844;29;20448;-72
2022/02/27 12:17:56;;;;;;;1999.90;999.90;;;7.20;99.90;;;;;;4956563;28;20438;-72
2022/02/27 12:20:44;;;;;;;1999.90;999.90;;;7.20;99.90;;;;;;4956263;29;20529;-72
2022/02/27 12:23:43;;;;;;;1999.90;999.90;;;7.30;99.90;;;;;;4954648;28;20942;-72
2022/02/27 12:26:33;;;;;;;1999.90;999.90;;;7.30;99.90;;;;;;4956072;28;20527;-71
2022/02/27 12:29:04;;;;;;;1999.90;999.90;;;7.40;99.90;;;;;;4954501;29;20446;-71